sensor_id;sensor_type;location;lat;lon;timestamp;pressure;altitude;pressure_sealevel;temperature;humidity
12219;BME280;6172;42.646;23.344;2023-03-01T00:02:21;95126.78;;;3.39;100.00
12219;BME280;6172;42.646;23.344;2023-03-01T00:04:48;95127.75;;;3.50;100.00
12219;BME280;6172;42.646;23.344;2023-03-01T00:07:15;95126.31;;;3.56;100.00
12219;BME280;6172;42.646;23.344;2023-03-01T00:09:42;95130.91;;;3.55;100.00
12219;BME280;6172;42.646;23.344;2023-03-01T00:12:11;95125.53;;;3.55;100.00
12219;BME280;6172;42.646;23.344;2023-03-01T00:14:39;95111.69;;;3.57;100.00
12219;BME280;6172;42.646;23.344;2023-03-01T00:17:08;95109.31;;;3.52;100.00
12219;BME280;6172;42.646;23.344;2023-03-01T00:19:36;95112.38;;;3.50;100.00
12219;BME280;6172;42.646;23.344;2023-03-01T00:22:02;95105.03;;;3.51;100.00
12219;BME280;6172;42.646;23.344;2023-03-01T00:24:29;95105.47;;;3.53;100.00
12219;BME280;6172;42.646;23.344;2023-03-01T00:26:56;95083.13;;;3.29;100.00
12219;BME280;6172;42.646;23.344;2023-03-01T00:29:24;95085.94;;;3.37;100.00
12219;BME280;6172;42.646;23.344;2023-03-01T00:31:51;95082.81;;;3.34;100.00
12219;BME280;6172;42.646;23.344;2023-03-01T00:34:19;95085.03;;;3.29;100.00
12219;BME280;6172;42.646;23.344;2023-03-01T00:36:47;95081.84;;;3.23;100.00
12219;BME280;6172;42.646;23.344;2023-03-01T00:39:15;95068.09;;;3.28;100.00
12219;BME280;6172;42.646;23.344;2023-03-01T00:41:42;95075.84;;;3.30;100.00
12219;BME280;6172;42.646;23.344;2023-03-01T00:44:10;95078.16;;;3.32;100.00
12219;BME280;6172;42.646;23.344;2023-03-01T00:46:37;95074.72;;;3.34;100.00
12219;BME280;6172;42.646;23.344;2023-03-01T00:49:04;95078.94;;;3.32;100.00
12219;BME280;6172;42.646;23.344;2023-03-01T00:51:33;95079.00;;;3.36;100.00
12219;BME280;6172;42.646;23.344;2023-03-01T00:54:01;95076.47;;;3.23;100.00
12219;BME280;6172;42.646;23.344;2023-03-01T00:56:29;95066.66;;;3.34;100.00
12219;BME280;6172;42.646;23.344;2023-03-01T00:58:56;95063.25;;;3.37;100.00
12219;BME280;6172;42.646;23.344;2023-03-01T01:01:25;95070.81;;;3.28;100.00
12219;BME280;6172;42.646;23.344;2023-03-01T01:03:55;95083.25;;;3.37;100.00
12219;BME280;6172;42.646;23.344;2023-03-01T01:06:23;95072.78;;;3.32;100.00
12219;BME280;6172;42.646;23.344;2023-03-01T01:08:54;95064.81;;;3.39;100.00
12219;BME280;6172;42.646;23.344;2023-03-01T01:11:22;95067.31;;;3.51;100.00
12219;BME280;6172;42.646;23.344;2023-03-01T01:13:49;95074.72;;;3.34;100.00
12219;BME280;6172;42.646;23.344;2023-03-01T01:16:18;95061.13;;;3.27;100.00
12219;BME280;6172;42.646;23.344;2023-03-01T01:18:45;95072.47;;;3.37;100.00
12219;BME280;6172;42.646;23.344;2023-03-01T01:21:14;95064.03;;;3.15;100.00
12219;BME280;6172;42.646;23.344;2023-03-01T01:23:42;95066.06;;;3.03;100.00
12219;BME280;6172;42.646;23.344;2023-03-01T01:26:13;95065.84;;;3.11;100.00
12219;BME280;6172;42.646;23.344;2023-03-01T01:28:40;95067.78;;;3.11;100.00
12219;BME280;6172;42.646;23.344;2023-03-01T01:31:07;95057.63;;;3.04;100.00
12219;BME280;6172;42.646;23.344;2023-03-01T01:33:35;95063.91;;;3.08;100.00
12219;BME280;6172;42.646;23.344;2023-03-01T01:36:03;95077.19;;;3.01;100.00
12219;BME280;6172;42.646;23.344;2023-03-01T01:38:31;95075.66;;;3.00;100.00
12219;BME280;6172;42.646;23.344;2023-03-01T01:40:58;95074.84;;;3.19;100.00
12219;BME280;6172;42.646;23.344;2023-03-01T01:43:30;95071.22;;;3.11;100.00
12219;BME280;6172;42.646;23.344;2023-03-01T01:45:59;95079.13;;;3.20;100.00
12219;BME280;6172;42.646;23.344;2023-03-01T01:48:36;95079.47;;;2.99;100.00
12219;BME280;6172;42.646;23.344;2023-03-01T01:51:09;95073.53;;;3.09;100.00
12219;BME280;6172;42.646;23.344;2023-03-01T01:53:38;95072.16;;;3.00;100.00
12219;BME280;6172;42.646;23.344;2023-03-01T01:56:08;95064.97;;;3.04;100.00
12219;BME280;6172;42.646;23.344;2023-03-01T01:58:43;95066.06;;;3.03;100.00
12219;BME280;6172;42.646;23.344;2023-03-01T02:01:13;95061.97;;;3.09;100.00
12219;BME280;6172;42.646;23.344;2023-03-01T02:03:42;95053.13;;;3.08;100.00
12219;BME280;6172;42.646;23.344;2023-03-01T02:06:20;95061.84;;;3.24;100.00
12219;BME280;6172;42.646;23.344;2023-03-01T02:08:49;95056.66;;;3.12;100.00
12219;BME280;6172;42.646;23.344;2023-03-01T02:11:19;95058.34;;;3.01;100.00
12219;BME280;6172;42.646;23.344;2023-03-01T02:13:54;95035.94;;;2.94;100.00
12219;BME280;6172;42.646;23.344;2023-03-01T02:16:22;95040.28;;;3.02;100.00
12219;BME280;6172;42.646;23.344;2023-03-01T02:18:49;95044.69;;;3.10;100.00
12219;BME280;6172;42.646;23.344;2023-03-01T02:21:40;95042.34;;;3.08;100.00
12219;BME280;6172;42.646;23.344;2023-03-01T02:24:19;95042.63;;;3.03;100.00
12219;BME280;6172;42.646;23.344;2023-03-01T02:26:51;95045.22;;;3.19;100.00
12219;BME280;6172;42.646;23.344;2023-03-01T02:29:26;95050.19;;;3.17;100.00
12219;BME280;6172;42.646;23.344;2023-03-01T02:31:56;95045.56;;;3.17;100.00
12219;BME280;6172;42.646;23.344;2023-03-01T02:34:25;95051.31;;;3.16;100.00
12219;BME280;6172;42.646;23.344;2023-03-01T02:36:55;95055.22;;;3.18;100.00
12219;BME280;6172;42.646;23.344;2023-03-01T02:39:27;95057.78;;;3.11;100.00
12219;BME280;6172;42.646;23.344;2023-03-01T02:41:59;95068.09;;;3.28;100.00
12219;BME280;6172;42.646;23.344;2023-03-01T02:44:29;95051.28;;;3.35;100.00
12219;BME280;6172;42.646;23.344;2023-03-01T02:47:02;95059.47;;;3.42;100.00
12219;BME280;6172;42.646;23.344;2023-03-01T02:49:31;95048.00;;;3.22;100.00
12219;BME280;6172;42.646;23.344;2023-03-01T02:52:37;95056.09;;;3.26;100.00
12219;BME280;6172;42.646;23.344;2023-03-01T02:55:09;95057.97;;;3.22;100.00
12219;BME280;6172;42.646;23.344;2023-03-01T02:57:40;95051.94;;;3.28;100.00
12219;BME280;6172;42.646;23.344;2023-03-01T03:00:14;95056.66;;;3.12;100.00
12219;BME280;6172;42.646;23.344;2023-03-01T03:02:45;95062.44;;;3.14;100.00
12219;BME280;6172;42.646;23.344;2023-03-01T03:05:15;95056.78;;;3.19;100.00
12219;BME280;6172;42.646;23.344;2023-03-01T03:07:44;95056.81;;;3.23;100.00
12219;BME280;6172;42.646;23.344;2023-03-01T03:10:15;95060.03;;;3.28;100.00
12219;BME280;6172;42.646;23.344;2023-03-01T03:12:42;95061.03;;;3.20;100.00
12219;BME280;6172;42.646;23.344;2023-03-01T03:15:12;95057.00;;;3.11;100.00
12219;BME280;6172;42.646;23.344;2023-03-01T03:17:41;95050.63;;;3.00;100.00
12219;BME280;6172;42.646;23.344;2023-03-01T03:20:11;95060.75;;;3.06;100.00
12219;BME280;6172;42.646;23.344;2023-03-01T03:22:44;95068.28;;;2.97;100.00
12219;BME280;6172;42.646;23.344;2023-03-01T03:25:13;95054.91;;;3.01;100.00
12219;BME280;6172;42.646;23.344;2023-03-01T03:27:43;95065.44;;;3.09;100.00
12219;BME280;6172;42.646;23.344;2023-03-01T03:30:16;95054.22;;;3.07;100.00
12219;BME280;6172;42.646;23.344;2023-03-01T03:32:45;95062.44;;;3.14;100.00
12219;BME280;6172;42.646;23.344;2023-03-01T03:35:18;95049.78;;;2.96;100.00
12219;BME280;6172;42.646;23.344;2023-03-01T03:37:46;95067.66;;;3.04;100.00
12219;BME280;6172;42.646;23.344;2023-03-01T03:40:33;95065.44;;;3.09;100.00
12219;BME280;6172;42.646;23.344;2023-03-01T03:43:05;95068.84;;;3.06;100.00
12219;BME280;6172;42.646;23.344;2023-03-01T03:45:48;95068.00;;;2.83;100.00
12219;BME280;6172;42.646;23.344;2023-03-01T03:48:16;95069.34;;;2.93;100.00
12219;BME280;6172;42.646;23.344;2023-03-01T03:50:48;95076.66;;;2.92;100.00
12219;BME280;6172;42.646;23.344;2023-03-01T03:53:33;95081.25;;;3.11;100.00
12219;BME280;6172;42.646;23.344;2023-03-01T03:56:05;95069.28;;;3.08;100.00
12219;BME280;6172;42.646;23.344;2023-03-01T03:58:34;95066.59;;;3.08;100.00
12219;BME280;6172;42.646;23.344;2023-03-01T04:01:05;95070.22;;;2.97;100.00
12219;BME280;6172;42.646;23.344;2023-03-01T04:03:33;95073.75;;;3.01;100.00
12219;BME280;6172;42.646;23.344;2023-03-01T04:06:02;95080.81;;;3.09;100.00
12219;BME280;6172;42.646;23.344;2023-03-01T04:08:31;95067.47;;;3.16;100.00
12219;BME280;6172;42.646;23.344;2023-03-01T04:11:02;95074.13;;;3.22;100.00
12219;BME280;6172;42.646;23.344;2023-03-01T04:13:50;95080.34;;;3.26;100.00
12219;BME280;6172;42.646;23.344;2023-03-01T04:16:19;95065.72;;;3.04;100.00
12219;BME280;6172;42.646;23.344;2023-03-01T04:18:47;95077.34;;;3.08;100.00
12219;BME280;6172;42.646;23.344;2023-03-01T04:21:14;95069.41;;;2.96;100.00
12219;BME280;6172;42.646;23.344;2023-03-01T04:23:41;95067.22;;;2.83;100.00
12219;BME280;6172;42.646;23.344;2023-03-01T04:26:08;95072.03;;;2.93;100.00
12219;BME280;6172;42.646;23.344;2023-03-01T04:28:38;95084.06;;;2.99;100.00
12219;BME280;6172;42.646;23.344;2023-03-01T04:31:09;95086.06;;;2.83;100.00
12219;BME280;6172;42.646;23.344;2023-03-01T04:33:45;95086.19;;;2.90;100.00
12219;BME280;6172;42.646;23.344;2023-03-01T04:36:15;95080.69;;;2.83;100.00
12219;BME280;6172;42.646;23.344;2023-03-01T04:38:44;95071.97;;;2.89;100.00
12219;BME280;6172;42.646;23.344;2023-03-01T04:41:15;95069.78;;;2.95;100.00
12219;BME280;6172;42.646;23.344;2023-03-01T04:43:42;95078.47;;;3.07;100.00
12219;BME280;6172;42.646;23.344;2023-03-01T04:46:12;95080.75;;;3.05;100.00
12219;BME280;6172;42.646;23.344;2023-03-01T04:48:44;95081.28;;;3.14;100.00
12219;BME280;6172;42.646;23.344;2023-03-01T04:51:12;95068.53;;;3.11;100.00
12219;BME280;6172;42.646;23.344;2023-03-01T04:53:40;95071.47;;;3.03;100.00
12219;BME280;6172;42.646;23.344;2023-03-01T04:56:08;95063.19;;;2.92;100.00
12219;BME280;6172;42.646;23.344;2023-03-01T04:58:37;95072.56;;;2.98;100.00
12219;BME280;6172;42.646;23.344;2023-03-01T05:01:09;95066.88;;;3.03;100.00
12219;BME280;6172;42.646;23.344;2023-03-01T05:03:41;95067.88;;;2.95;100.00
12219;BME280;6172;42.646;23.344;2023-03-01T05:06:11;95076.09;;;3.02;100.00
12219;BME280;6172;42.646;23.344;2023-03-01T05:08:38;95073.03;;;3.04;100.00
12219;BME280;6172;42.646;23.344;2023-03-01T05:11:10;95065.47;;;2.90;100.00
12219;BME280;6172;42.646;23.344;2023-03-01T05:13:39;95076.94;;;2.87;100.00
12219;BME280;6172;42.646;23.344;2023-03-01T05:16:08;95073.16;;;3.11;100.00
12219;BME280;6172;42.646;23.344;2023-03-01T05:18:37;95074.16;;;3.03;100.00
12219;BME280;6172;42.646;23.344;2023-03-01T05:21:06;95073.09;;;3.07;100.00
12219;BME280;6172;42.646;23.344;2023-03-01T05:23:36;95067.00;;;2.91;100.00
12219;BME280;6172;42.646;23.344;2023-03-01T05:26:05;95080.75;;;3.05;100.00
12219;BME280;6172;42.646;23.344;2023-03-01T05:28:35;95075.41;;;3.09;100.00
12219;BME280;6172;42.646;23.344;2023-03-01T05:31:04;95067.81;;;3.14;100.00
12219;BME280;6172;42.646;23.344;2023-03-01T05:33:37;95070.13;;;3.12;100.00
12219;BME280;6172;42.646;23.344;2023-03-01T05:36:07;95063.59;;;3.13;100.00
12219;BME280;6172;42.646;23.344;2023-03-01T05:38:36;95069.75;;;3.14;100.00
12219;BME280;6172;42.646;23.344;2023-03-01T05:41:03;95075.06;;;3.10;100.00
12219;BME280;6172;42.646;23.344;2023-03-01T05:43:31;95066.47;;;3.24;100.00
12219;BME280;6172;42.646;23.344;2023-03-01T05:45:59;95063.84;;;3.27;100.00
12219;BME280;6172;42.646;23.344;2023-03-01T05:48:26;95064.31;;;3.10;100.00
12219;BME280;6172;42.646;23.344;2023-03-01T05:50:53;95059.28;;;3.09;100.00
12219;BME280;6172;42.646;23.344;2023-03-01T05:53:20;95065.41;;;3.28;100.00
12219;BME280;6172;42.646;23.344;2023-03-01T05:55:53;95066.75;;;3.19;100.00
12219;BME280;6172;42.646;23.344;2023-03-01T05:58:21;95069.22;;;3.27;100.00
12219;BME280;6172;42.646;23.344;2023-03-01T06:00:49;95081.28;;;3.14;100.00
12219;BME280;6172;42.646;23.344;2023-03-01T06:03:17;95076.47;;;3.23;100.00
12219;BME280;6172;42.646;23.344;2023-03-01T06:05:56;95088.78;;;3.24;100.00
12219;BME280;6172;42.646;23.344;2023-03-01T06:08:24;95094.69;;;3.30;100.00
12219;BME280;6172;42.646;23.344;2023-03-01T06:10:54;95080.47;;;3.33;100.00
12219;BME280;6172;42.646;23.344;2023-03-01T06:13:23;95100.28;;;3.21;100.00
12219;BME280;6172;42.646;23.344;2023-03-01T06:15:51;95101.28;;;3.33;100.00
12219;BME280;6172;42.646;23.344;2023-03-01T06:18:18;95103.53;;;3.30;100.00
12219;BME280;6172;42.646;23.344;2023-03-01T06:20:52;95104.91;;;3.21;100.00
12219;BME280;6172;42.646;23.344;2023-03-01T06:23:19;95099.88;;;3.19;100.00
12219;BME280;6172;42.646;23.344;2023-03-01T06:25:46;95107.25;;;3.22;100.00
12219;BME280;6172;42.646;23.344;2023-03-01T06:28:15;95115.81;;;3.28;100.00
12219;BME280;6172;42.646;23.344;2023-03-01T06:30:42;95100.56;;;3.36;100.00
12219;BME280;6172;42.646;23.344;2023-03-01T06:33:09;95102.22;;;3.44;100.00
12219;BME280;6172;42.646;23.344;2023-03-01T06:35:37;95103.06;;;3.48;100.00
12219;BME280;6172;42.646;23.344;2023-03-01T06:38:04;95104.53;;;3.42;100.00
12219;BME280;6172;42.646;23.344;2023-03-01T06:40:32;95096.13;;;3.47;100.00
12219;BME280;6172;42.646;23.344;2023-03-01T06:43:01;95098.91;;;3.50;100.00
12219;BME280;6172;42.646;23.344;2023-03-01T06:45:29;95106.38;;;3.60;100.00
12219;BME280;6172;42.646;23.344;2023-03-01T06:48:03;95102.66;;;3.46;100.00
12219;BME280;6172;42.646;23.344;2023-03-01T06:50:30;95109.63;;;3.27;100.00
12219;BME280;6172;42.646;23.344;2023-03-01T06:52:58;95104.38;;;3.34;100.00
12219;BME280;6172;42.646;23.344;2023-03-01T06:55:24;95104.22;;;3.47;100.00
12219;BME280;6172;42.646;23.344;2023-03-01T06:57:54;95100.09;;;3.53;100.00
12219;BME280;6172;42.646;23.344;2023-03-01T07:00:22;95088.56;;;3.33;100.00
12219;BME280;6172;42.646;23.344;2023-03-01T07:02:50;95109.00;;;3.57;100.00
12219;BME280;6172;42.646;23.344;2023-03-01T07:05:17;95111.41;;;3.62;100.00
12219;BME280;6172;42.646;23.344;2023-03-01T07:07:44;95103.94;;;3.52;100.00
12219;BME280;6172;42.646;23.344;2023-03-01T07:10:12;95111.66;;;3.53;100.00
12219;BME280;6172;42.646;23.344;2023-03-01T07:12:39;95100.22;;;3.60;100.00
12219;BME280;6172;42.646;23.344;2023-03-01T07:15:09;95093.44;;;3.47;100.00
12219;BME280;6172;42.646;23.344;2023-03-01T07:17:38;95096.84;;;3.44;100.00
12219;BME280;6172;42.646;23.344;2023-03-01T07:20:09;95103.06;;;3.48;100.00
12219;BME280;6172;42.646;23.344;2023-03-01T07:22:36;95089.19;;;3.46;100.00
12219;BME280;6172;42.646;23.344;2023-03-01T07:25:03;95092.91;;;3.60;100.00
12219;BME280;6172;42.646;23.344;2023-03-01T07:27:30;95098.94;;;3.54;100.00
12219;BME280;6172;42.646;23.344;2023-03-01T07:29:59;95095.19;;;3.58;100.00
12219;BME280;6172;42.646;23.344;2023-03-01T07:32:26;95089.53;;;3.67;100.00
12219;BME280;6172;42.646;23.344;2023-03-01T07:34:53;95088.28;;;3.83;100.00
12219;BME280;6172;42.646;23.344;2023-03-01T07:37:28;95087.78;;;4.00;100.00
12219;BME280;6172;42.646;23.344;2023-03-01T07:39:54;95083.31;;;3.85;100.00
12219;BME280;6172;42.646;23.344;2023-03-01T07:42:22;95084.19;;;3.93;100.00
12219;BME280;6172;42.646;23.344;2023-03-01T07:44:49;95081.19;;;3.98;100.00
12219;BME280;6172;42.646;23.344;2023-03-01T07:47:16;95079.63;;;3.97;100.00
12219;BME280;6172;42.646;23.344;2023-03-01T07:49:43;95080.22;;;3.83;100.00
12219;BME280;6172;42.646;23.344;2023-03-01T07:52:10;95077.47;;;4.06;100.00
12219;BME280;6172;42.646;23.344;2023-03-01T07:54:39;95069.22;;;3.95;100.00
12219;BME280;6172;42.646;23.344;2023-03-01T07:57:10;95068.56;;;4.02;100.00
12219;BME280;6172;42.646;23.344;2023-03-01T07:59:37;95076.44;;;4.14;100.00
12219;BME280;6172;42.646;23.344;2023-03-01T08:02:08;95065.25;;;4.12;100.00
12219;BME280;6172;42.646;23.344;2023-03-01T08:04:36;95066.75;;;4.35;100.00
12219;BME280;6172;42.646;23.344;2023-03-01T08:07:07;95060.16;;;4.33;100.00
12219;BME280;6172;42.646;23.344;2023-03-01T08:09:34;95058.97;;;4.30;100.00
12219;BME280;6172;42.646;23.344;2023-03-01T08:12:05;95052.09;;;3.84;100.00
12219;BME280;6172;42.646;23.344;2023-03-01T08:14:33;95042.91;;;4.11;100.00
12219;BME280;6172;42.646;23.344;2023-03-01T08:17:00;95050.09;;;4.30;100.00
12219;BME280;6172;42.646;23.344;2023-03-01T08:19:30;95056.53;;;4.48;100.00
12219;BME280;6172;42.646;23.344;2023-03-01T08:21:58;95060.88;;;4.56;100.00
12219;BME280;6172;42.646;23.344;2023-03-01T08:24:26;95053.19;;;4.58;100.00
12219;BME280;6172;42.646;23.344;2023-03-01T08:26:53;95048.03;;;4.79;100.00
12219;BME280;6172;42.646;23.344;2023-03-01T08:29:23;95053.34;;;4.72;100.00
12219;BME280;6172;42.646;23.344;2023-03-01T08:31:51;95049.56;;;4.76;100.00
12219;BME280;6172;42.646;23.344;2023-03-01T08:34:18;95050.16;;;4.96;100.00
12219;BME280;6172;42.646;23.344;2023-03-01T08:36:46;95044.25;;;4.83;100.00
12219;BME280;6172;42.646;23.344;2023-03-01T08:39:23;95044.31;;;4.90;100.00
12219;BME280;6172;42.646;23.344;2023-03-01T08:41:50;95041.56;;;4.87;100.00
12219;BME280;6172;42.646;23.344;2023-03-01T08:44:17;95049.78;;;4.94;100.00
12219;BME280;6172;42.646;23.344;2023-03-01T08:46:50;95027.88;;;5.02;100.00
12219;BME280;6172;42.646;23.344;2023-03-01T08:49:21;95047.97;;;5.08;100.00
12219;BME280;6172;42.646;23.344;2023-03-01T08:51:49;95046.13;;;5.16;100.00
12219;BME280;6172;42.646;23.344;2023-03-01T08:54:18;95036.50;;;5.15;100.00
12219;BME280;6172;42.646;23.344;2023-03-01T08:56:46;95045.75;;;5.14;100.00
12219;BME280;6172;42.646;23.344;2023-03-01T08:59:17;95046.72;;;4.95;100.00
12219;BME280;6172;42.646;23.344;2023-03-01T09:01:48;95045.25;;;4.72;100.00
12219;BME280;6172;42.646;23.344;2023-03-01T09:04:16;95049.06;;;5.00;100.00
12219;BME280;6172;42.646;23.344;2023-03-01T09:06:43;95041.47;;;5.13;100.00
12219;BME280;6172;42.646;23.344;2023-03-01T09:09:13;95043.13;;;5.21;100.00
12219;BME280;6172;42.646;23.344;2023-03-01T09:11:41;95039.19;;;5.15;100.00
12219;BME280;6172;42.646;23.344;2023-03-01T09:14:08;95040.56;;;5.35;100.00
12219;BME280;6172;42.646;23.344;2023-03-01T09:16:42;95040.38;;;5.17;100.00
12219;BME280;6172;42.646;23.344;2023-03-01T09:21:57;95041.34;;;5.35;100.00
12219;BME280;6172;42.646;23.344;2023-03-01T09:24:24;95036.69;;;5.36;100.00
12219;BME280;6172;42.646;23.344;2023-03-01T09:26:53;95044.06;;;5.39;100.00
12219;BME280;6172;42.646;23.344;2023-03-01T09:29:20;95034.66;;;5.22;100.00
12219;BME280;6172;42.646;23.344;2023-03-01T09:31:48;95031.47;;;5.53;100.00
12219;BME280;6172;42.646;23.344;2023-03-01T09:34:16;95042.28;;;5.53;100.00
12219;BME280;6172;42.646;23.344;2023-03-01T09:36:48;95033.38;;;5.53;100.00
12219;BME280;6172;42.646;23.344;2023-03-01T09:39:17;95036.16;;;5.60;100.00
12219;BME280;6172;42.646;23.344;2023-03-01T09:41:49;95023.97;;;5.36;100.00
12219;BME280;6172;42.646;23.344;2023-03-01T09:44:23;95026.78;;;5.47;100.00
12219;BME280;6172;42.646;23.344;2023-03-01T09:46:52;95034.53;;;5.12;100.00
12219;BME280;6172;42.646;23.344;2023-03-01T09:49:25;95025.34;;;5.20;100.00
12219;BME280;6172;42.646;23.344;2023-03-01T09:52:01;95023.53;;;5.31;100.00
12219;BME280;6172;42.646;23.344;2023-03-01T09:54:33;95013.78;;;5.23;100.00
12219;BME280;6172;42.646;23.344;2023-03-01T09:57:17;95025.53;;;5.01;100.00
12219;BME280;6172;42.646;23.344;2023-03-01T09:59:59;95014.41;;;4.73;100.00
12219;BME280;6172;42.646;23.344;2023-03-01T10:02:35;95012.78;;;4.98;100.00
12219;BME280;6172;42.646;23.344;2023-03-01T10:05:19;95016.78;;;5.14;100.00
12219;BME280;6172;42.646;23.344;2023-03-01T10:08:00;95006.16;;;5.32;100.00
12219;BME280;6172;42.646;23.344;2023-03-01T10:10:32;95007.06;;;5.46;100.00
12219;BME280;6172;42.646;23.344;2023-03-01T10:13:04;95002.97;;;5.19;100.00
12219;BME280;6172;42.646;23.344;2023-03-01T10:15:38;95008.53;;;5.37;100.00
12219;BME280;6172;42.646;23.344;2023-03-01T10:18:11;95007.09;;;5.50;100.00
12219;BME280;6172;42.646;23.344;2023-03-01T10:20:46;94995.72;;;5.30;100.00
12219;BME280;6172;42.646;23.344;2023-03-01T10:23:17;95003.31;;;5.58;100.00
12219;BME280;6172;42.646;23.344;2023-03-01T10:25:51;95001.28;;;5.48;100.00
12219;BME280;6172;42.646;23.344;2023-03-01T10:28:26;94993.69;;;5.20;100.00
12219;BME280;6172;42.646;23.344;2023-03-01T10:30:57;94993.19;;;5.48;100.00
12219;BME280;6172;42.646;23.344;2023-03-01T10:33:27;94993.25;;;5.55;100.00
12219;BME280;6172;42.646;23.344;2023-03-01T10:35:57;94990.50;;;5.11;100.00
12219;BME280;6172;42.646;23.344;2023-03-01T10:38:25;94990.69;;;5.29;100.00
12219;BME280;6172;42.646;23.344;2023-03-01T10:40:55;94977.13;;;5.69;100.00
12219;BME280;6172;42.646;23.344;2023-03-01T10:43:23;94971.38;;;5.77;100.00
12219;BME280;6172;42.646;23.344;2023-03-01T10:45:51;94964.66;;;5.54;100.00
12219;BME280;6172;42.646;23.344;2023-03-01T10:48:20;94969.38;;;5.67;100.00
12219;BME280;6172;42.646;23.344;2023-03-01T10:50:51;94966.78;;;5.82;100.00
12219;BME280;6172;42.646;23.344;2023-03-01T10:53:34;94966.47;;;5.90;100.00
12219;BME280;6172;42.646;23.344;2023-03-01T10:56:04;94960.31;;;5.97;100.00
12219;BME280;6172;42.646;23.344;2023-03-01T10:58:34;94966.72;;;6.36;100.00
12219;BME280;6172;42.646;23.344;2023-03-01T11:01:03;94956.94;;;6.14;100.00
12219;BME280;6172;42.646;23.344;2023-03-01T11:03:31;94963.34;;;6.53;100.00
12219;BME280;6172;42.646;23.344;2023-03-01T11:06:01;94958.66;;;6.50;100.00
12219;BME280;6172;42.646;23.344;2023-03-01T11:08:47;94958.50;;;6.18;100.00
12219;BME280;6172;42.646;23.344;2023-03-01T11:11:23;94962.81;;;6.26;100.00
12219;BME280;6172;42.646;23.344;2023-03-01T11:13:55;94965.16;;;6.31;100.00
12219;BME280;6172;42.646;23.344;2023-03-01T11:16:28;94965.38;;;6.05;100.00
12219;BME280;6172;42.646;23.344;2023-03-01T11:19:00;94959.75;;;6.35;100.00
12219;BME280;6172;42.646;23.344;2023-03-01T11:21:29;94963.19;;;6.28;100.00
12219;BME280;6172;42.646;23.344;2023-03-01T11:24:01;94972.03;;;6.15;100.00
12219;BME280;6172;42.646;23.344;2023-03-01T11:26:30;94969.25;;;6.08;100.00
12219;BME280;6172;42.646;23.344;2023-03-01T11:29:02;94978.91;;;6.05;100.00
12219;BME280;6172;42.646;23.344;2023-03-01T11:31:33;94968.00;;;5.95;100.00
12219;BME280;6172;42.646;23.344;2023-03-01T11:34:07;94971.59;;;6.09;100.00
12219;BME280;6172;42.646;23.344;2023-03-01T11:36:41;94958.31;;;5.83;100.00
12219;BME280;6172;42.646;23.344;2023-03-01T11:39:18;94954.00;;;5.75;100.00
12219;BME280;6172;42.646;23.344;2023-03-01T11:42:06;94949.19;;;5.51;100.00
12219;BME280;6172;42.646;23.344;2023-03-01T11:44:40;94954.72;;;5.72;100.00
12219;BME280;6172;42.646;23.344;2023-03-01T11:47:20;94946.38;;;5.91;100.00
12219;BME280;6172;42.646;23.344;2023-03-01T11:50:09;94932.69;;;5.66;100.00
12219;BME280;6172;42.646;23.344;2023-03-01T11:52:46;94936.31;;;5.88;100.00
12219;BME280;6172;42.646;23.344;2023-03-01T11:55:28;94924.69;;;5.88;100.00
12219;BME280;6172;42.646;23.344;2023-03-01T11:58:12;94913.88;;;5.84;100.00
12219;BME280;6172;42.646;23.344;2023-03-01T12:00:58;94932.44;;;5.86;100.00
12219;BME280;6172;42.646;23.344;2023-03-01T12:03:41;94935.81;;;5.72;100.00
12219;BME280;6172;42.646;23.344;2023-03-01T12:06:27;94926.97;;;5.79;100.00
12219;BME280;6172;42.646;23.344;2023-03-01T12:09:09;94925.53;;;5.95;100.00
12219;BME280;6172;42.646;23.344;2023-03-01T12:11:59;94923.38;;;6.29;100.00
12219;BME280;6172;42.646;23.344;2023-03-01T12:14:47;94919.50;;;6.26;100.00
12219;BME280;6172;42.646;23.344;2023-03-01T12:20:27;94910.44;;;6.83;100.00
12219;BME280;6172;42.646;23.344;2023-03-01T12:23:14;94905.44;;;7.06;100.00
12219;BME280;6172;42.646;23.344;2023-03-01T12:25:52;94899.59;;;6.90;100.00
12219;BME280;6172;42.646;23.344;2023-03-01T12:28:54;94902.34;;;7.18;100.00
12219;BME280;6172;42.646;23.344;2023-03-01T12:31:50;94899.25;;;7.16;100.00
12219;BME280;6172;42.646;23.344;2023-03-01T12:34:34;94906.63;;;7.26;100.00
12219;BME280;6172;42.646;23.344;2023-03-01T12:37:21;94897.31;;;7.17;100.00
12219;BME280;6172;42.646;23.344;2023-03-01T12:40:02;94900.41;;;7.08;100.00
12219;BME280;6172;42.646;23.344;2023-03-01T12:42:35;94894.56;;;6.75;100.00
12219;BME280;6172;42.646;23.344;2023-03-01T12:45:47;94889.53;;;6.73;100.00
12219;BME280;6172;42.646;23.344;2023-03-01T12:48:36;94900.34;;;6.84;100.00
12219;BME280;6172;42.646;23.344;2023-03-01T12:51:10;94893.03;;;6.88;100.00
12219;BME280;6172;42.646;23.344;2023-03-01T12:53:40;94888.72;;;6.59;100.00
12219;BME280;6172;42.646;23.344;2023-03-01T12:56:11;94894.56;;;6.75;100.00
12219;BME280;6172;42.646;23.344;2023-03-01T12:58:49;94890.94;;;6.43;100.00
12219;BME280;6172;42.646;23.344;2023-03-01T13:01:33;94885.53;;;6.43;100.00
12219;BME280;6172;42.646;23.344;2023-03-01T13:04:12;94897.16;;;6.50;100.00
12219;BME280;6172;42.646;23.344;2023-03-01T13:06:47;94894.53;;;6.68;100.00
12219;BME280;6172;42.646;23.344;2023-03-01T13:09:23;94894.78;;;6.31;100.00
12219;BME280;6172;42.646;23.344;2023-03-01T13:11:57;94893.66;;;6.43;100.00
12219;BME280;6172;42.646;23.344;2023-03-01T13:14:53;94905.63;;;6.38;100.00
12219;BME280;6172;42.646;23.344;2023-03-01T13:17:42;94897.81;;;6.16;100.00
12219;BME280;6172;42.646;23.344;2023-03-01T13:20:14;94912.88;;;6.13;100.00
12219;BME280;6172;42.646;23.344;2023-03-01T13:22:41;94898.50;;;6.02;100.00
12219;BME280;6172;42.646;23.344;2023-03-01T13:25:15;94908.19;;;6.03;100.00
12219;BME280;6172;42.646;23.344;2023-03-01T13:27:44;94903.16;;;6.05;100.00
12219;BME280;6172;42.646;23.344;2023-03-01T13:30:39;94905.75;;;5.88;100.00